createdAt,value
2023-04-14T00:02:26.036Z,99980.09
2023-04-14T00:07:28.723Z,99979.97
2023-04-14T00:12:31.497Z,99983.31
2023-04-14T00:17:34.365Z,99976.78
2023-04-14T00:22:37.199Z,99965.25
2023-04-14T00:27:39.935Z,99992.94
2023-04-14T00:32:43.882Z,99973.50
2023-04-14T00:37:46.644Z,99994.31
2023-04-14T00:42:49.458Z,99970.41
2023-04-14T00:47:52.474Z,99947.38
2023-04-14T00:52:55.417Z,99926.78
2023-04-14T00:57:58.156Z,99921.50
2023-04-14T01:03:01.079Z,99933.13
2023-04-14T01:08:04.564Z,99976.56
2023-04-14T01:13:27.673Z,99961.00
2023-04-14T01:18:53.490Z,99953.66
2023-04-14T01:24:03.488Z,99965.94
2023-04-14T01:29:43.575Z,99954.34
2023-04-14T01:34:56.095Z,99980.84
2023-04-14T01:40:05.872Z,99999.97
2023-04-14T01:45:17.455Z,100049.28
2023-04-14T01:50:21.465Z,100024.50
2023-04-14T01:55:24.570Z,100000.13
2023-04-14T02:00:28.177Z,99974.75
2023-04-14T02:05:32.807Z,99954.91
2023-04-14T02:10:35.289Z,99986.03
2023-04-14T02:15:40.359Z,100026.03
2023-04-14T02:20:45.334Z,100059.78
2023-04-14T02:26:11.688Z,100051.97
2023-04-14T02:31:16.941Z,100055.03
2023-04-14T02:36:24.095Z,100033.84
2023-04-14T02:41:29.415Z,100043.59
2023-04-14T02:46:35.980Z,100065.53
2023-04-14T02:51:39.444Z,100082.72
2023-04-14T02:56:42.479Z,100046.50
2023-04-14T03:01:46.182Z,100077.13
2023-04-14T03:06:49.082Z,100071.34
2023-04-14T03:11:54.336Z,100061.44
2023-04-14T03:16:58.310Z,100066.91
2023-04-14T03:22:01.525Z,100080.72
2023-04-14T03:27:15.128Z,100084.22
2023-04-14T03:32:20.013Z,100086.72
2023-04-14T03:37:26.007Z,100077.41
2023-04-14T03:42:29.972Z,100083.81
2023-04-14T03:47:32.993Z,100058.19
2023-04-14T03:52:37.464Z,100068.31
2023-04-14T03:57:40.876Z,100079.78
2023-04-14T04:02:45.551Z,100081.72
2023-04-14T04:07:50.367Z,100113.59
2023-04-14T04:12:53.755Z,100094.66
2023-04-14T04:17:58.562Z,100093.06
2023-04-14T04:23:02.439Z,100088.03
2023-04-14T04:28:05.751Z,100100.88
2023-04-14T04:33:09.995Z,100101.69
2023-04-14T04:38:13.440Z,100101.19
2023-04-14T04:43:19.907Z,100087.50
2023-04-14T04:48:22.760Z,100117.28
2023-04-14T04:53:25.790Z,100117.91
2023-04-14T04:58:28.525Z,100122.63
2023-04-14T05:03:31.280Z,100111.22
2023-04-14T05:08:34.176Z,100106.66
2023-04-14T05:13:36.905Z,100131.44
2023-04-14T05:18:41.028Z,100137.75
2023-04-14T05:23:44.962Z,100139.06
2023-04-14T05:28:47.960Z,100149.38
2023-04-14T05:33:50.700Z,100141.66
2023-04-14T05:38:53.365Z,100150.88
2023-04-14T05:43:56.201Z,100149.19
2023-04-14T05:48:59.402Z,100151.34
2023-04-14T05:54:02.434Z,100167.47
2023-04-14T05:59:05.257Z,100147.53
2023-04-14T06:04:08.373Z,100159.16
2023-04-14T06:09:11.564Z,100162.19
2023-04-14T06:14:14.442Z,100167.56
2023-04-14T06:19:19.098Z,100163.78
2023-04-14T06:24:21.855Z,100165.78
2023-04-14T06:29:24.641Z,100176.22
2023-04-14T06:34:27.526Z,100154.25
2023-04-14T06:39:30.882Z,100176.81
2023-04-14T06:44:33.653Z,100178.38
2023-04-14T06:49:37.523Z,100162.09
2023-04-14T06:54:40.386Z,100181.41
2023-04-14T06:59:43.256Z,100191.00
2023-04-14T07:04:46.168Z,100186.00
2023-04-14T07:09:49.077Z,100186.91
2023-04-14T07:14:52.561Z,100189.78
2023-04-14T07:19:55.763Z,100177.06
2023-04-14T07:24:58.635Z,100181.88
2023-04-14T07:30:01.560Z,100174.81
2023-04-14T07:35:06.347Z,100200.88
2023-04-14T07:40:09.609Z,100194.00
2023-04-14T07:45:12.473Z,100192.97
2023-04-14T07:50:17.175Z,100185.69
2023-04-14T07:55:22.132Z,100196.72
2023-04-14T08:00:25.075Z,100196.19
2023-04-14T08:05:28.290Z,100200.53
2023-04-14T08:10:31.353Z,100205.19
2023-04-14T08:15:34.269Z,100194.16
2023-04-14T08:20:38.482Z,100195.66
2023-04-14T08:25:42.624Z,100196.69
2023-04-14T08:30:45.903Z,100214.22
2023-04-14T08:35:57.881Z,100209.88
2023-04-14T08:41:05.324Z,100195.56
2023-04-14T08:46:09.089Z,100207.63
2023-04-14T08:51:30.357Z,100211.25
2023-04-14T08:56:39.010Z,100220.13
2023-04-14T09:01:42.102Z,100208.50
2023-04-14T09:06:45.024Z,100218.75
2023-04-14T09:11:48.919Z,100221.00
2023-04-14T09:16:54.252Z,100223.34
2023-04-14T09:21:57.321Z,100233.66
2023-04-14T09:27:08.206Z,100223.16
2023-04-14T09:32:12.957Z,100233.00
2023-04-14T09:37:16.665Z,100239.72
2023-04-14T09:42:19.943Z,100226.09
2023-04-14T09:47:24.347Z,100243.81
2023-04-14T09:52:48.823Z,100238.47
2023-04-14T09:57:52.884Z,100256.84
2023-04-14T10:02:58.478Z,100245.72
2023-04-14T10:08:05.736Z,100242.75
2023-04-14T10:13:08.826Z,100250.22
2023-04-14T10:18:12.119Z,100269.06
2023-04-14T10:23:15.275Z,100274.34
2023-04-14T10:28:18.275Z,100253.75
2023-04-14T10:33:21.459Z,100243.03
2023-04-14T10:38:37.770Z,100271.00
2023-04-14T10:43:42.006Z,100283.75
2023-04-14T10:48:49.683Z,100277.59
2023-04-14T10:53:56.066Z,100286.63
2023-04-14T10:58:59.782Z,100286.72
2023-04-14T11:04:21.806Z,100276.13
2023-04-14T11:09:33.198Z,100288.81
2023-04-14T11:14:36.713Z,100286.94
2023-04-14T11:19:40.606Z,100278.94
2023-04-14T11:24:44.168Z,100288.75
2023-04-14T11:29:49.063Z,100283.84
2023-04-14T11:34:51.968Z,100277.06
2023-04-14T11:39:54.800Z,100271.31
2023-04-14T11:44:58.966Z,100259.06
2023-04-14T11:50:03.039Z,100281.69
2023-04-14T11:55:06.916Z,100274.25
2023-04-14T12:00:15.007Z,100293.09
2023-04-14T12:05:31.629Z,100289.38
2023-04-14T12:10:34.887Z,100289.13
2023-04-14T12:15:39.675Z,100300.94
2023-04-14T12:21:07.498Z,100284.09
2023-04-14T12:26:13.033Z,100305.34
2023-04-14T12:31:16.440Z,100289.19
2023-04-14T12:36:19.482Z,100294.53
2023-04-14T12:41:23.713Z,100293.97
2023-04-14T12:46:27.508Z,100295.63
2023-04-14T12:51:39.551Z,100289.56
2023-04-14T12:56:43.140Z,100304.34
2023-04-14T13:01:46.031Z,100321.75
2023-04-14T13:06:49.127Z,100305.59
2023-04-14T13:11:52.262Z,100321.19
2023-04-14T13:16:56.133Z,100315.09
2023-04-14T13:21:59.120Z,100331.28
2023-04-14T13:27:02.151Z,100324.41
2023-04-14T13:32:10.450Z,100341.72
2023-04-14T13:37:13.359Z,100337.00
2023-04-14T13:42:16.234Z,100334.78
2023-04-14T13:47:19.440Z,100345.97
2023-04-14T13:52:22.372Z,100351.75
2023-04-14T13:57:25.187Z,100352.34
2023-04-14T14:02:28.111Z,100351.13
2023-04-14T14:07:30.977Z,100355.00
2023-04-14T14:12:33.825Z,100365.03
2023-04-14T14:17:37.716Z,100364.97
2023-04-14T14:22:40.824Z,100366.66
2023-04-14T14:27:45.288Z,100369.25
2023-04-14T14:32:48.206Z,100379.25
2023-04-14T14:37:51.180Z,100365.78
2023-04-14T14:42:54.065Z,100394.78
2023-04-14T14:47:57.107Z,100401.50
2023-04-14T14:52:59.918Z,100401.81
2023-04-14T14:58:03.983Z,100396.63
2023-04-14T15:03:07.231Z,100402.81
2023-04-14T15:08:10.304Z,100407.91
2023-04-14T15:13:13.336Z,100395.94
2023-04-14T15:18:16.497Z,100410.47
2023-04-14T15:23:19.261Z,100391.56
2023-04-14T15:28:22.209Z,100411.41
2023-04-14T15:33:24.894Z,100401.47
2023-04-14T15:38:27.790Z,100403.94
2023-04-14T15:43:30.563Z,100390.84
2023-04-14T15:48:33.386Z,100387.47
2023-04-14T15:53:36.384Z,100362.13
2023-04-14T15:58:39.235Z,100396.63
2023-04-14T16:03:42.426Z,100391.31
2023-04-14T16:08:45.503Z,100385.53
2023-04-14T16:13:48.250Z,100387.72
2023-04-14T16:18:51.344Z,100387.03
2023-04-14T16:23:54.010Z,100370.16
2023-04-14T16:28:57.017Z,100367.06
2023-04-14T16:34:00.109Z,100371.69
2023-04-14T16:39:03.463Z,100365.22
2023-04-14T16:44:06.443Z,100380.34
2023-04-14T16:49:09.268Z,100379.75
2023-04-14T16:54:12.236Z,100379.56
2023-04-14T16:59:15.098Z,100374.09
2023-04-14T17:04:18.322Z,100377.34
2023-04-14T17:09:21.219Z,100375.38
2023-04-14T17:14:24.024Z,100386.72
2023-04-14T17:19:26.991Z,100392.44
2023-04-14T17:24:30.791Z,100397.72
2023-04-14T17:29:33.538Z,100389.09
2023-04-14T17:34:36.350Z,100391.97
2023-04-14T17:39:39.273Z,100395.22
2023-04-14T17:44:42.228Z,100412.81
2023-04-14T17:49:45.065Z,100408.38
2023-04-14T17:54:52.808Z,100394.81
2023-04-14T17:59:55.550Z,100407.34
2023-04-14T18:04:58.666Z,100413.34
2023-04-14T18:10:01.457Z,100398.50
2023-04-14T18:15:07.633Z,100407.59
2023-04-14T18:20:14.153Z,100411.03
2023-04-14T18:25:18.734Z,100411.56
2023-04-14T18:30:23.043Z,100402.56
2023-04-14T18:35:25.827Z,100420.75
2023-04-14T18:40:28.737Z,100422.47
2023-04-14T18:45:31.539Z,100433.41
2023-04-14T18:50:34.407Z,100433.59
2023-04-14T18:55:45.205Z,100437.53
2023-04-14T19:00:48.952Z,100450.63
2023-04-14T19:05:51.781Z,100443.94
2023-04-14T19:10:54.534Z,100443.66
2023-04-14T19:16:12.874Z,100432.69
2023-04-14T19:21:15.772Z,100444.25
2023-04-14T19:26:19.913Z,100447.16
2023-04-14T19:31:22.699Z,100444.06
2023-04-14T19:36:25.575Z,100437.41
2023-04-14T19:41:28.703Z,100429.50
2023-04-14T19:46:31.838Z,100427.25
2023-04-14T19:51:35.403Z,100439.34
2023-04-14T19:56:38.282Z,100442.53
2023-04-14T20:01:41.382Z,100441.50
2023-04-14T20:06:44.113Z,100435.38
2023-04-14T20:11:47.306Z,100452.19
2023-04-14T20:16:50.515Z,100452.28
2023-04-14T20:21:53.156Z,100458.09
2023-04-14T20:26:55.858Z,100456.31
2023-04-14T20:31:58.922Z,100462.63
2023-04-14T20:37:01.786Z,100459.97
2023-04-14T20:42:04.527Z,100459.78
2023-04-14T20:47:08.686Z,100462.22
2023-04-14T20:52:11.369Z,100457.63
2023-04-14T20:57:14.282Z,100464.28
2023-04-14T21:02:17.123Z,100459.88
2023-04-14T21:07:19.846Z,100454.03
2023-04-14T21:12:22.599Z,100446.13
2023-04-14T21:17:25.608Z,100451.97
2023-04-14T21:22:28.298Z,100438.41
2023-04-14T21:27:31.083Z,100450.19
2023-04-14T21:32:34.548Z,100453.69
2023-04-14T21:37:37.205Z,100447.19
2023-04-14T21:42:39.871Z,100445.38
2023-04-14T21:47:42.722Z,100440.28
2023-04-14T21:52:45.539Z,100451.88
2023-04-14T21:57:49.975Z,100451.84
2023-04-14T22:02:53.483Z,100464.78
2023-04-14T22:07:56.165Z,100465.78
2023-04-14T22:13:00.111Z,100464.06
2023-04-14T22:18:02.851Z,100462.97
2023-04-14T22:23:05.998Z,100481.72
2023-04-14T22:28:09.247Z,100479.84
2023-04-14T22:33:12.396Z,100483.00
2023-04-14T22:38:15.587Z,100482.75
2023-04-14T22:43:18.346Z,100486.91
2023-04-14T22:48:21.237Z,100490.53
2023-04-14T22:53:24.044Z,100489.28
2023-04-14T22:58:26.806Z,100489.47
2023-04-14T23:03:29.603Z,100495.91
2023-04-14T23:08:32.359Z,100504.66
2023-04-14T23:13:35.071Z,100507.78
2023-04-14T23:18:39.873Z,100518.31
2023-04-14T23:23:43.467Z,100513.50
2023-04-14T23:28:46.329Z,100515.75
2023-04-14T23:33:51.297Z,100523.13
2023-04-14T23:38:55.161Z,100516.47
2023-04-14T23:43:58.018Z,100525.66
2023-04-14T23:49:03.089Z,100526.72
2023-04-14T23:54:23.712Z,100530.63
2023-04-14T23:59:26.753Z,100526.47
